• Join FlightAware (Why Join?)
  • Login
  • US Flag 
11:07AM EDT


 

Airport Tracker/Info


-or-


 

Live Flight TrackerFlight Track Log ✈ EJA929 ✈ 22-May-2013 ✈ KBWI - TXKF / BDA

Flight Track Log - Related Links

Times and Time Zones

All times are in EDT time to prevent confusion due to time zone crossing. See the EJA929 flight status page for this flight to view local times or setup timezone preferences in your user account.

Time Position Orientation Groundspeed Altitude Reporting Facility
EDT Latitude Longitude Course Direction KTS MPH feet Rate Location/Type
11:04AM 39.1500 -76.7667 90° East 233 268 4,300  Level Potomac TRACON
11:06AM 39.0797 -76.6450 127° Southeast 283 326 7,600 1,860 Climbing Washington Center
11:07AM 39.0556 -76.5353 106° East 274 315 9,700 1,560 Climbing Washington Center
11:08AM 39.0314 -76.4147 104° East 307 353 10,800 1,680 Climbing Washington Center
11:09AM 39.0500 -75.7169 90° East  Level FlightAware Approximate
11:09AM 39.0261 -76.2836 93° East 354 407 13,200  Level Washington Center
11:10AM 39.0372 -76.1500 84° East 354 407 15,800 2,400 Climbing Washington Center
11:11AM 39.0458 -76.0272 85° East 354 407 18,000 2,040 Climbing Washington Center
11:12AM 39.0525 -75.8989 86° East 359 413 20,000 1,920 Climbing Washington Center
11:13AM 39.0592 -75.7681 86° East 359 413 22,000 1,500 Climbing Washington Center
11:14AM 39.0633 -75.6317 88° East 370 426 23,000 480 Climbing Washington Center
11:15AM 39.0675 -75.4739 88° East 397 457 23,000 480 Level Washington Center
11:16AM 39.0442 -75.3136 101° East 432 497 24,000 1,380 Climbing Washington Center
11:17AM 39.0147 -75.1536 103° East 448 516 25,900 1,440 Climbing Washington Center
11:18AM 38.9889 -75.0014 102° East 453 521 27,000 540 Climbing Washington Center
11:19AM 38.9608 -74.8414 103° East 448 516 27,000  Level Washington Center
11:20AM 38.9283 -74.6711 104° East 461 531 27,000  Level Washington Center
11:21AM 38.9000 -74.4981 102° East 482 555 27,000 660 Level Washington Center
11:22AM 38.8628 -74.3333 106° East 482 555 28,400 1,320 Climbing Washington Center
11:24AM 38.7272 -74.0575 122° Southeast 482 555 30,900 840 Climbing New York Center
11:25AM 38.6542 -73.9133 123° Southeast 482 555 31,000  Climbing New York Center
11:26AM 38.5767 -73.7611 123° Southeast 496 571 31,000  Level New York Center
11:27AM 38.4992 -73.6119 124° Southeast 509 586 31,000  Level New York Center
11:28AM 38.4236 -73.4553 122° Southeast 514 592 31,000  Level New York Center
11:29AM 38.3456 -73.3067 124° Southeast 514 592 31,000  Level New York Center
11:30AM 38.2675 -73.1531 123° Southeast 514 592 31,000  Level New York Center
11:31AM 38.1956 -72.9950 120° Southeast 514 592 31,000  Level New York Center
11:32AM 38.1128 -72.8525 126° Southeast 519 597 31,000  Level New York Center
11:33AM 38.0500 -72.7319 123° Southeast 514 592 31,000  Level New York Center
11:34AM 37.9653 -72.5583 122° Southeast 519 597 31,000  Level New York Center
11:35AM 37.8800 -72.3983 124° Southeast 518 596 31,000  Level New York Center
11:36AM 37.8133 -72.2522 120° Southeast 504 580 31,000  Level New York Center
11:37AM 37.7378 -72.1064 123° Southeast 505 581 31,000  Level New York Center
11:38AM 37.6667 -71.9556 121° Southeast 502 578 31,000  Level New York Center
11:39AM 37.6183 -71.7686 108° East 522 601 31,000  Level New York Center
11:40AM 37.5614 -71.5947 112° Southeast 522 601 31,000  Level New York Center
11:41AM 37.5186 -71.4292 108° East 534 615 31,000  Level New York Center
11:42AM 37.4653 -71.2667 112° Southeast 527 606 31,000  Level New York Center
11:43AM 37.4178 -71.0936 109° East 527 606 31,000  Level New York Center
11:44AM 37.3703 -70.9183 109° East 532 612 31,000  Level New York Center
11:46AM 37.2821 -70.6457 110° East  Level FlightAware Approximate
11:53AM 36.9799 -69.6283 111° Southeast  Level FlightAware Approximate
11:54AM 36.9350 -69.4842 111° Southeast  Level FlightAware Approximate
11:55AM 36.8898 -69.3402 111° Southeast  Level FlightAware Approximate
11:56AM 36.8454 -69.1960 111° Southeast  Level FlightAware Approximate
11:57AM 36.8019 -69.0514 111° Southeast  Level FlightAware Approximate
11:58AM 36.7581 -68.9070 111° Southeast  Level FlightAware Approximate
11:59AM 36.7142 -68.7627 111° Southeast  Level FlightAware Approximate
12:00PM 36.6701 -68.6187 111° Southeast  Level FlightAware Approximate
12:00PM 36.5667 -68.2833 142° Southeast 483 556 31,000  Level New York Oceanic (ODAPS)
12:01PM 36.6259 -68.4747 111° Southeast  Level FlightAware Approximate
12:02PM 36.5815 -68.3310 111° Southeast  Level FlightAware Approximate
12:03PM 36.5019 -68.2195 142° Southeast  Level FlightAware Approximate
12:04PM 36.4049 -68.1241 142° Southeast  Level FlightAware Approximate
12:05PM 36.3079 -68.0289 142° Southeast  Level FlightAware Approximate
12:06PM 35.7194 -67.4664 142° Southeast 483 556 31,000  Level FlightAware Transoceanic
12:07PM 35.6131 -67.3655 142° Southeast 483 556 31,000  Level FlightAware Transoceanic
12:08PM 35.5067 -67.2649 142° Southeast 483 556 31,000  Level FlightAware Transoceanic
12:09PM 35.4002 -67.1645 143° Southeast 483 556 31,000  Level FlightAware Transoceanic
12:10PM 35.2937 -67.0644 143° Southeast 483 556 31,000  Level FlightAware Transoceanic
12:11PM 35.1870 -66.9646 143° Southeast 483 556 31,000  Level FlightAware Transoceanic
12:12PM 35.0803 -66.8650 143° Southeast 483 556 31,000  Level FlightAware Transoceanic
12:13PM 34.9735 -66.7657 143° Southeast 483 556 31,000  Level FlightAware Transoceanic
12:14PM 34.8667 -66.6667 146° Southeast 483 556 31,000  Level FlightAware Transoceanic
12:15PM 34.7483 -66.5696 146° Southeast 483 556 31,000  Level FlightAware Transoceanic
12:15PM 34.8667 -66.6667 146° Southeast 399 459 31,000  Level New York Oceanic (ODAPS)
12:16PM 34.6300 -66.4727 146° Southeast 483 556 31,000  Level FlightAware Transoceanic
12:17PM 34.5115 -66.3762 146° Southeast 483 556 31,000  Level FlightAware Transoceanic
12:18PM 34.3930 -66.2799 146° Southeast 483 556 31,000  Level FlightAware Transoceanic
12:19PM 34.2743 -66.1839 146° Southeast 483 556 31,000 -660 Level FlightAware Transoceanic
12:19PM 34.8667 -66.6667 146° Southeast 399 459 30,000  Descending New York Oceanic (ODAPS)
12:20PM 34.1557 -66.0881 146° Southeast 483 556 31,000 660 Climbing FlightAware Transoceanic
12:21PM 34.2216 -66.1413 146° Southeast 399 459 31,000  Level FlightAware Transoceanic
12:22PM 34.1293 -66.0669 146° Southeast 399 459 31,000  Level FlightAware Transoceanic
12:23PM 34.0369 -65.9927 146° Southeast 399 459 31,000  Level FlightAware Transoceanic
12:24PM 33.9445 -65.9186 146° Southeast 399 459 31,000  Level FlightAware Transoceanic
12:25PM 33.8520 -65.8447 146° Southeast 399 459 31,000 -540 Level FlightAware Transoceanic
12:26PM 33.7595 -65.7709 147° Southeast 399 459 30,000 -540 Descending FlightAware Transoceanic
12:27PM 33.6669 -65.6973 147° Southeast 399 459 30,000  Level FlightAware Transoceanic
12:28PM 33.5743 -65.6239 147° Southeast 399 459 30,000  Level FlightAware Transoceanic
12:29PM 33.4817 -65.5506 147° Southeast 399 459 30,000  Level FlightAware Transoceanic
12:30PM 33.3890 -65.4775 147° Southeast 399 459 30,000  Level FlightAware Transoceanic
12:31PM 33.2963 -65.4046 147° Southeast 399 459 30,000  Level FlightAware Transoceanic
12:32PM 33.2035 -65.3318 147° Southeast 399 459 30,000  Level FlightAware Transoceanic
12:33PM 33.1107 -65.2591 147° Southeast 399 459 30,000  Level FlightAware Transoceanic
12:34PM 33.0178 -65.1866 147° Southeast 399 459 30,000 -5,160 Level FlightAware Transoceanic
12:35PM 33.0071 -65.1916 144° Southeast  Level FlightAware Approximate
12:35PM 34.8667 -66.6667 146° Southeast 399 459 18,000  Level New York Oceanic (ODAPS)
12:36PM 32.6500 -64.9000 169° South 399 459 30,000 18,420 Climbing FlightAware Transoceanic
12:37PM 32.7486 -64.9766 327° Northwest  Level FlightAware Approximate
12:38PM 32.8471 -65.0534 327° Northwest  Level FlightAware Approximate
12:39PM 32.9456 -65.1303 327° Northwest  Level FlightAware Approximate
12:40PM 33.0440 -65.2074 327° Northwest  Level FlightAware Approximate
12:41PM 34.3638 -66.2594 147° Southeast  Level FlightAware Approximate
12:42PM 34.2740 -66.1890 147° Southeast  Level FlightAware Approximate
12:43PM 34.1840 -66.1190 147° Southeast  Level FlightAware Approximate
12:44PM 34.0942 -66.0488 147° Southeast  Level FlightAware Approximate
12:45PM 34.0048 -65.9777 147° Southeast  Level FlightAware Approximate
12:46PM 33.9154 -65.9068 147° Southeast  Level FlightAware Approximate
12:47PM 33.8259 -65.8361 147° Southeast  Level FlightAware Approximate
12:48PM 33.7364 -65.7655 147° Southeast  Level FlightAware Approximate
12:49PM 33.6469 -65.6951 147° Southeast  Level FlightAware Approximate
12:50PM 33.5573 -65.6248 147° Southeast  Level FlightAware Approximate
12:51PM 33.4677 -65.5547 147° Southeast  Level FlightAware Approximate
12:52PM 33.3780 -65.4847 147° Southeast  Level FlightAware Approximate
12:53PM 33.2883 -65.4148 147° Southeast  Level FlightAware Approximate
12:54PM 33.1985 -65.3451 147° Southeast  Level FlightAware Approximate
12:55PM 33.1104 -65.2729 147° Southeast  Level FlightAware Approximate
12:56PM 33.0207 -65.2031 147° Southeast  Level FlightAware Approximate
12:57PM 32.9343 -65.1279 144° Southeast  Level FlightAware Approximate
12:58PM 32.8460 -65.0561 149° Southeast  Level FlightAware Approximate
12:59PM 32.7547 -64.9897 149° Southeast  Level FlightAware Approximate
01:00PM 32.6637 -64.9228 148° Southeast  Level FlightAware Approximate
01:01PM 32.5744 -64.8528 146° Southeast  Level FlightAware Approximate
01:02PM 32.4853 -64.7843 157° South  Level FlightAware Approximate
01:03PM 32.3947 -64.7169 148° Southeast  Level FlightAware Approximate
01:04PM 32.3640 -64.6787 90° East  Level Estimated
01:05PM 32.3640 -64.6787 90° East  Level Estimated
01:06PM 32.3640 -64.6787 90° East  Level Estimated
01:07PM 32.3640 -64.6787 90° East  Level Estimated
01:08PM 32.3640 -64.6787 90° East  Level Estimated
01:09PM 32.3640 -64.6787 90° East  Level Estimated
01:10PM 32.3640 -64.6787 90° East  Level Estimated
01:11PM 32.3640 -64.6787 90° East  Level Estimated
01:12PM 32.3640 -64.6787 90° East  Level Estimated
01:13PM 32.3640 -64.6787 90° East  Level Estimated
01:14PM 32.3640 -64.6787 90° East  Level Estimated
01:15PM 32.3640 -64.6787 90° East  Level Estimated